createdAt,value
2022-11-22T00:01:01.999Z,49.87
2022-11-22T00:06:04.316Z,54.03
2022-11-22T00:11:06.598Z,58.00
2022-11-22T00:16:08.876Z,55.80
2022-11-22T00:21:11.162Z,54.30
2022-11-22T00:26:13.498Z,54.23
2022-11-22T00:31:15.848Z,54.93
2022-11-22T00:36:18.252Z,57.30
2022-11-22T00:41:20.639Z,56.43
2022-11-22T00:46:22.984Z,57.30
2022-11-22T00:51:25.332Z,59.50
2022-11-22T00:56:27.706Z,57.90
2022-11-22T01:01:30.090Z,55.83
2022-11-22T01:06:32.519Z,59.13
2022-11-22T01:11:34.837Z,60.70
2022-11-22T01:16:37.150Z,57.67
2022-11-22T01:21:39.558Z,59.30
2022-11-22T01:26:41.890Z,57.77
2022-11-22T01:31:44.371Z,50.87
2022-11-22T01:36:46.740Z,76.80
2022-11-22T01:41:49.395Z,94.13
2022-11-22T01:46:55.666Z,65.07
2022-11-22T01:52:04.966Z,81.17
2022-11-22T01:57:16.715Z,64.03
2022-11-22T02:02:19.051Z,61.43
2022-11-22T02:07:35.492Z,49.70
2022-11-22T02:12:38.012Z,53.03
2022-11-22T02:17:40.280Z,49.17
2022-11-22T02:23:11.664Z,52.03
2022-11-22T02:28:14.079Z,53.80
2022-11-22T02:33:16.432Z,52.90
2022-11-22T02:38:24.922Z,57.83
2022-11-22T02:43:30.514Z,59.17
2022-11-22T02:48:33.172Z,50.80
2022-11-22T02:53:35.611Z,52.33
2022-11-22T02:58:38.356Z,51.97
2022-11-22T03:03:40.713Z,60.00
2022-11-22T03:08:44.351Z,62.23
2022-11-22T03:13:46.717Z,53.00
2022-11-22T03:18:49.203Z,62.77
2022-11-22T03:23:51.529Z,62.67
2022-11-22T03:28:53.913Z,55.60
2022-11-22T03:33:56.954Z,58.40
2022-11-22T03:38:59.452Z,67.43
2022-11-22T03:44:02.152Z,61.00
2022-11-22T03:49:04.444Z,72.10
2022-11-22T03:54:06.762Z,56.90
2022-11-22T03:59:09.184Z,57.93
2022-11-22T04:04:11.655Z,72.27
2022-11-22T04:09:14.129Z,67.53
2022-11-22T04:14:34.977Z,72.63
2022-11-22T04:19:37.271Z,63.80
2022-11-22T04:24:58.179Z,62.53
2022-11-22T04:30:00.496Z,65.67
2022-11-22T04:35:02.866Z,68.97
2022-11-22T04:40:05.733Z,69.27
2022-11-22T04:45:09.343Z,71.33
2022-11-22T04:50:30.259Z,62.73
2022-11-22T04:55:32.708Z,61.33
2022-11-22T05:00:35.434Z,67.03
2022-11-22T05:05:39.812Z,69.67
2022-11-22T05:10:57.514Z,63.63
2022-11-22T05:16:00.886Z,66.33
2022-11-22T05:21:08.655Z,70.63
2022-11-22T05:26:11.782Z,66.13
2022-11-22T05:31:16.892Z,74.23
2022-11-22T05:36:19.793Z,77.70
2022-11-22T05:41:22.329Z,78.33
2022-11-22T05:46:27.112Z,74.70
2022-11-22T05:51:34.114Z,76.77
2022-11-22T05:56:36.732Z,95.03
2022-11-22T06:01:39.147Z,84.07
2022-11-22T06:06:41.590Z,107.90
2022-11-22T06:11:46.510Z,93.57
2022-11-22T06:16:51.229Z,67.00
2022-11-22T06:21:53.716Z,89.03
2022-11-22T06:26:56.067Z,90.07
2022-11-22T06:32:03.149Z,82.43
2022-11-22T06:37:05.975Z,76.23
2022-11-22T06:42:08.324Z,91.07
2022-11-22T06:47:11.116Z,73.70
2022-11-22T06:52:13.487Z,72.90
2022-11-22T06:57:15.821Z,80.00
2022-11-22T07:02:18.125Z,79.83
2022-11-22T07:07:20.494Z,88.57
2022-11-22T07:12:22.904Z,90.30
2022-11-22T07:17:25.214Z,82.50
2022-11-22T07:22:28.688Z,73.83
2022-11-22T07:27:30.978Z,58.43
2022-11-22T07:32:33.331Z,66.30
2022-11-22T07:37:35.685Z,62.57
2022-11-22T07:42:38.248Z,57.73
2022-11-22T07:47:41.143Z,51.73
2022-11-22T07:52:43.622Z,71.67
2022-11-22T07:57:45.991Z,76.33
2022-11-22T08:02:48.331Z,58.37
2022-11-22T08:07:52.036Z,65.83
2022-11-22T08:12:54.386Z,64.83
2022-11-22T08:17:56.703Z,89.93
2022-11-22T08:22:59.108Z,74.47
2022-11-22T08:28:01.483Z,73.93
2022-11-22T08:33:03.875Z,73.57
2022-11-22T08:38:06.241Z,99.83
2022-11-22T08:43:10.766Z,71.53
2022-11-22T08:48:17.702Z,73.73
2022-11-22T08:53:24.624Z,86.53
2022-11-22T08:58:30.925Z,70.47
2022-11-22T09:03:35.546Z,83.80
2022-11-22T09:08:40.376Z,149.93
2022-11-22T09:13:46.533Z,128.07
2022-11-22T09:18:49.418Z,132.43
2022-11-22T09:23:53.586Z,87.97
2022-11-22T09:28:57.321Z,78.20
2022-11-22T09:33:59.721Z,120.27
2022-11-22T09:39:03.973Z,116.90
2022-11-22T09:44:30.708Z,117.43
2022-11-22T09:49:42.436Z,113.00
2022-11-22T09:55:04.246Z,116.43
2022-11-22T10:00:18.784Z,94.83
2022-11-22T10:05:28.437Z,117.23
2022-11-22T10:10:40.132Z,81.40
2022-11-22T10:16:26.080Z,76.97
2022-11-22T10:21:28.403Z,100.37
2022-11-22T10:26:33.021Z,145.80
2022-11-22T10:31:52.470Z,96.67
2022-11-22T10:37:00.527Z,88.70
2022-11-22T10:42:31.003Z,91.37
2022-11-22T10:47:49.994Z,99.47
2022-11-22T10:52:58.499Z,102.63
2022-11-22T10:58:38.580Z,79.50
2022-11-22T11:03:44.254Z,80.47
2022-11-22T11:09:47.676Z,168.43
2022-11-22T11:14:39.832Z,97.07
2022-11-22T11:19:44.453Z,113.60
2022-11-22T11:24:46.864Z,103.93
2022-11-22T11:30:04.625Z,101.33
2022-11-22T11:35:08.862Z,113.10
2022-11-22T11:40:32.119Z,136.00
2022-11-22T11:45:34.425Z,104.83
2022-11-22T11:50:36.804Z,118.30
2022-11-22T11:55:39.357Z,98.57
2022-11-22T12:00:41.770Z,179.87
2022-11-22T12:05:44.400Z,106.90
2022-11-22T12:11:09.093Z,105.60
2022-11-22T12:16:29.068Z,109.30
2022-11-22T12:21:56.200Z,89.13
2022-11-22T12:26:58.574Z,107.10
2022-11-22T12:32:07.478Z,127.03
2022-11-22T12:37:26.628Z,113.07
2022-11-22T12:42:32.176Z,95.47
2022-11-22T12:47:40.313Z,97.63
2022-11-22T12:52:48.689Z,85.73
2022-11-22T12:57:58.391Z,86.97
2022-11-22T13:03:20.106Z,88.77
2022-11-22T13:08:48.784Z,94.83
2022-11-22T13:14:03.239Z,92.60
2022-11-22T13:19:07.064Z,98.47
2022-11-22T13:24:39.109Z,114.30
2022-11-22T13:29:43.431Z,125.73
2022-11-22T13:35:40.343Z,131.40
2022-11-22T13:40:46.251Z,133.97
2022-11-22T13:45:50.405Z,142.17
2022-11-22T13:50:52.757Z,176.43
2022-11-22T13:56:15.922Z,154.30
2022-11-22T14:01:51.218Z,91.97
2022-11-22T14:07:03.092Z,117.07
2022-11-22T14:12:11.451Z,114.80
2022-11-22T14:17:13.712Z,189.63
2022-11-22T14:22:27.585Z,118.97
2022-11-22T14:28:06.415Z,120.03
2022-11-22T14:33:20.608Z,103.53
2022-11-22T14:38:28.470Z,104.30
2022-11-22T14:43:37.776Z,101.97
2022-11-22T14:49:13.165Z,100.57
2022-11-22T14:54:22.901Z,101.23
2022-11-22T15:00:06.399Z,104.93
2022-11-22T15:09:17.682Z,159.47
2022-11-22T15:10:58.432Z,127.17
2022-11-22T15:59:50.172Z,89.70
2022-11-22T16:06:09.567Z,93.83
2022-11-22T16:10:22.985Z,122.70
2022-11-22T16:15:36.426Z,97.70
2022-11-22T16:20:42.866Z,105.20
2022-11-22T16:25:50.346Z,89.13
2022-11-22T16:30:56.299Z,106.73
2022-11-22T16:36:00.950Z,120.57
2022-11-22T16:41:03.445Z,120.20
2022-11-22T16:46:06.053Z,115.47
2022-11-22T16:51:17.465Z,118.23
2022-11-22T16:56:22.900Z,166.20
2022-11-22T17:01:28.781Z,138.37
2022-11-22T17:06:32.630Z,118.03
2022-11-22T17:11:35.441Z,130.60
2022-11-22T17:16:37.764Z,112.47
2022-11-22T17:21:40.283Z,113.63
2022-11-22T17:26:42.642Z,114.07
2022-11-22T17:31:47.658Z,101.63
2022-11-22T17:36:50.029Z,115.63
2022-11-22T17:41:52.551Z,118.77
2022-11-22T17:46:55.206Z,100.50
2022-11-22T17:51:57.655Z,104.57
2022-11-22T17:57:00.004Z,112.87
2022-11-22T18:02:02.564Z,149.53
2022-11-22T18:07:05.066Z,141.83
2022-11-22T18:12:07.637Z,119.63
2022-11-22T18:17:10.199Z,129.60
2022-11-22T18:22:12.587Z,153.00
2022-11-22T18:27:14.933Z,119.63
2022-11-22T18:32:17.401Z,117.20
2022-11-22T18:37:19.752Z,122.10
2022-11-22T18:42:23.516Z,133.83
2022-11-22T18:47:25.922Z,155.53
2022-11-22T18:52:28.579Z,112.57
2022-11-22T18:57:30.997Z,111.00
2022-11-22T19:02:33.704Z,110.43
2022-11-22T19:07:36.093Z,110.50
2022-11-22T19:12:38.803Z,105.73
2022-11-22T19:17:41.152Z,99.77
2022-11-22T19:22:43.476Z,105.93
2022-11-22T19:27:48.547Z,111.17
2022-11-22T19:32:50.846Z,111.87
2022-11-22T19:37:53.154Z,106.23
2022-11-22T19:42:55.464Z,109.00
2022-11-22T19:47:57.764Z,96.57
2022-11-22T19:53:00.053Z,97.97
2022-11-22T19:58:03.138Z,91.43
2022-11-22T20:03:05.474Z,101.27
2022-11-22T20:08:08.064Z,101.67
2022-11-22T20:13:10.903Z,116.90
2022-11-22T20:18:13.239Z,101.50
2022-11-22T20:23:15.553Z,124.20
2022-11-22T20:28:17.911Z,115.43
2022-11-22T20:33:20.261Z,110.10
2022-11-22T20:38:22.624Z,136.70
2022-11-22T20:43:25.300Z,137.93
2022-11-22T20:48:27.805Z,101.97
2022-11-22T20:53:30.289Z,109.43
2022-11-22T20:58:32.769Z,115.53
2022-11-22T21:03:35.724Z,100.40
2022-11-22T21:08:38.260Z,105.13
2022-11-22T21:13:42.049Z,89.73
2022-11-22T21:18:44.378Z,97.10
2022-11-22T21:23:46.682Z,85.10
2022-11-22T21:28:49.142Z,98.60
2022-11-22T21:33:52.010Z,102.80
2022-11-22T21:38:54.322Z,94.87
2022-11-22T21:43:56.934Z,96.33
2022-11-22T21:48:59.442Z,90.40
2022-11-22T21:54:02.435Z,94.33
2022-11-22T21:59:04.896Z,87.10
2022-11-22T22:04:07.320Z,94.17
2022-11-22T22:09:09.658Z,95.27
2022-11-22T22:14:12.260Z,90.40
2022-11-22T22:19:15.529Z,92.43
2022-11-22T22:24:17.872Z,97.70
2022-11-22T22:29:20.274Z,92.03
2022-11-22T22:34:22.602Z,90.97
2022-11-22T22:39:24.916Z,93.37
2022-11-22T22:44:27.276Z,97.03
2022-11-22T22:49:29.936Z,92.60
2022-11-22T22:54:32.566Z,87.60
2022-11-22T22:59:34.901Z,92.80
2022-11-22T23:04:38.052Z,91.30
2022-11-22T23:09:40.487Z,88.13
2022-11-22T23:14:43.054Z,87.73
2022-11-22T23:19:45.368Z,84.67
2022-11-22T23:24:47.673Z,89.53
2022-11-22T23:29:49.992Z,90.53
2022-11-22T23:34:52.503Z,97.97
2022-11-22T23:39:54.881Z,93.90
2022-11-22T23:44:57.215Z,102.80
2022-11-22T23:49:59.541Z,89.67
2022-11-22T23:55:01.927Z,86.53
